sensor_id;sensor_type;location;lat;lon;timestamp;P1;durP1;ratioP1;P2;durP2;ratioP2
78169;SDS011;67412;49.892;14.490;2023-06-24T00:02:13;5.20;;;1.50;;
78169;SDS011;67412;49.892;14.490;2023-06-24T00:04:39;4.38;;;1.70;;
78169;SDS011;67412;49.892;14.490;2023-06-24T00:07:04;4.35;;;1.80;;
78169;SDS011;67412;49.892;14.490;2023-06-24T00:09:29;4.40;;;1.80;;
78169;SDS011;67412;49.892;14.490;2023-06-24T00:11:55;3.47;;;1.20;;
78169;SDS011;67412;49.892;14.490;2023-06-24T00:14:22;4.47;;;1.70;;
78169;SDS011;67412;49.892;14.490;2023-06-24T00:16:51;4.80;;;1.38;;
78169;SDS011;67412;49.892;14.490;2023-06-24T00:19:21;4.03;;;1.45;;
78169;SDS011;67412;49.892;14.490;2023-06-24T00:21:48;3.50;;;1.60;;
78169;SDS011;67412;49.892;14.490;2023-06-24T00:24:16;3.63;;;1.48;;
78169;SDS011;67412;49.892;14.490;2023-06-24T00:26:42;3.60;;;1.60;;
78169;SDS011;67412;49.892;14.490;2023-06-24T00:29:07;7.00;;;2.15;;
78169;SDS011;67412;49.892;14.490;2023-06-24T00:31:33;3.92;;;1.70;;
78169;SDS011;67412;49.892;14.490;2023-06-24T00:33:58;5.35;;;2.05;;
78169;SDS011;67412;49.892;14.490;2023-06-24T00:36:23;6.38;;;2.40;;
78169;SDS011;67412;49.892;14.490;2023-06-24T00:38:49;5.05;;;1.95;;
78169;SDS011;67412;49.892;14.490;2023-06-24T00:41:15;8.80;;;2.40;;
78169;SDS011;67412;49.892;14.490;2023-06-24T00:43:41;6.47;;;2.47;;
78169;SDS011;67412;49.892;14.490;2023-06-24T00:46:07;7.60;;;3.30;;
78169;SDS011;67412;49.892;14.490;2023-06-24T00:48:33;5.45;;;2.35;;
78169;SDS011;67412;49.892;14.490;2023-06-24T00:50:58;5.75;;;2.20;;
78169;SDS011;67412;49.892;14.490;2023-06-24T00:53:23;6.03;;;2.33;;
78169;SDS011;67412;49.892;14.490;2023-06-24T00:55:50;6.05;;;2.40;;
78169;SDS011;67412;49.892;14.490;2023-06-24T00:58:17;8.05;;;2.83;;
78169;SDS011;67412;49.892;14.490;2023-06-24T01:00:45;3.95;;;1.50;;
78169;SDS011;67412;49.892;14.490;2023-06-24T01:03:11;7.72;;;2.20;;
78169;SDS011;67412;49.892;14.490;2023-06-24T01:08:04;6.45;;;2.60;;
78169;SDS011;67412;49.892;14.490;2023-06-24T01:10:29;5.18;;;2.00;;
78169;SDS011;67412;49.892;14.490;2023-06-24T01:12:54;6.25;;;2.67;;
78169;SDS011;67412;49.892;14.490;2023-06-24T01:15:20;5.22;;;2.22;;
78169;SDS011;67412;49.892;14.490;2023-06-24T01:20:27;4.30;;;1.80;;
78169;SDS011;67412;49.892;14.490;2023-06-24T01:28:34;6.18;;;2.45;;
78169;SDS011;67412;49.892;14.490;2023-06-24T01:36:37;6.32;;;2.22;;
78169;SDS011;67412;49.892;14.490;2023-06-24T01:39:08;7.55;;;3.00;;
78169;SDS011;67412;49.892;14.490;2023-06-24T01:41:36;6.45;;;2.42;;
78169;SDS011;67412;49.892;14.490;2023-06-24T01:44:13;5.97;;;2.33;;
78169;SDS011;67412;49.892;14.490;2023-06-24T01:46:40;7.63;;;2.78;;
78169;SDS011;67412;49.892;14.490;2023-06-24T01:49:10;8.02;;;2.67;;
78169;SDS011;67412;49.892;14.490;2023-06-24T01:51:38;6.05;;;2.33;;
78169;SDS011;67412;49.892;14.490;2023-06-24T01:54:07;6.32;;;2.45;;
78169;SDS011;67412;49.892;14.490;2023-06-24T01:56:37;7.63;;;2.65;;
78169;SDS011;67412;49.892;14.490;2023-06-24T01:59:06;6.60;;;2.42;;
78169;SDS011;67412;49.892;14.490;2023-06-24T02:01:33;6.13;;;2.03;;
78169;SDS011;67412;49.892;14.490;2023-06-24T02:04:01;4.70;;;1.88;;
78169;SDS011;67412;49.892;14.490;2023-06-24T02:06:28;6.95;;;2.42;;
78169;SDS011;67412;49.892;14.490;2023-06-24T02:08:55;6.95;;;2.35;;
78169;SDS011;67412;49.892;14.490;2023-06-24T02:11:23;6.75;;;2.38;;
78169;SDS011;67412;49.892;14.490;2023-06-24T02:13:49;6.93;;;2.80;;
78169;SDS011;67412;49.892;14.490;2023-06-24T02:16:16;8.45;;;2.90;;
78169;SDS011;67412;49.892;14.490;2023-06-24T02:18:42;7.13;;;2.90;;
78169;SDS011;67412;49.892;14.490;2023-06-24T02:21:09;6.53;;;2.63;;
78169;SDS011;67412;49.892;14.490;2023-06-24T02:23:36;6.70;;;2.65;;
78169;SDS011;67412;49.892;14.490;2023-06-24T02:26:02;6.63;;;2.50;;
78169;SDS011;67412;49.892;14.490;2023-06-24T02:28:30;8.10;;;2.95;;
78169;SDS011;67412;49.892;14.490;2023-06-24T02:30:57;8.70;;;3.10;;
78169;SDS011;67412;49.892;14.490;2023-06-24T02:33:23;7.47;;;2.97;;
78169;SDS011;67412;49.892;14.490;2023-06-24T02:35:49;6.28;;;2.40;;
78169;SDS011;67412;49.892;14.490;2023-06-24T02:38:14;8.68;;;3.13;;
78169;SDS011;67412;49.892;14.490;2023-06-24T02:40:40;8.43;;;3.53;;
78169;SDS011;67412;49.892;14.490;2023-06-24T02:43:09;6.75;;;2.47;;
78169;SDS011;67412;49.892;14.490;2023-06-24T02:45:34;8.32;;;3.25;;
78169;SDS011;67412;49.892;14.490;2023-06-24T02:47:59;7.18;;;2.90;;
78169;SDS011;67412;49.892;14.490;2023-06-24T02:50:25;8.20;;;2.75;;
78169;SDS011;67412;49.892;14.490;2023-06-24T02:52:51;8.45;;;2.97;;
78169;SDS011;67412;49.892;14.490;2023-06-24T02:55:17;8.43;;;3.00;;
78169;SDS011;67412;49.892;14.490;2023-06-24T02:57:43;7.13;;;2.88;;
78169;SDS011;67412;49.892;14.490;2023-06-24T03:00:09;7.63;;;2.55;;
78169;SDS011;67412;49.892;14.490;2023-06-24T03:02:38;8.00;;;3.08;;
78169;SDS011;67412;49.892;14.490;2023-06-24T03:05:04;8.73;;;3.80;;
78169;SDS011;67412;49.892;14.490;2023-06-24T03:07:31;7.20;;;2.78;;
78169;SDS011;67412;49.892;14.490;2023-06-24T03:09:59;7.57;;;3.08;;
78169;SDS011;67412;49.892;14.490;2023-06-24T03:14:51;11.40;;;3.80;;
78169;SDS011;67412;49.892;14.490;2023-06-24T03:17:17;6.90;;;2.50;;
78169;SDS011;67412;49.892;14.490;2023-06-24T03:19:42;7.35;;;2.72;;
78169;SDS011;67412;49.892;14.490;2023-06-24T03:22:08;7.15;;;2.30;;
78169;SDS011;67412;49.892;14.490;2023-06-24T03:24:33;6.43;;;2.53;;
78169;SDS011;67412;49.892;14.490;2023-06-24T03:26:58;7.53;;;2.90;;
78169;SDS011;67412;49.892;14.490;2023-06-24T03:29:24;6.53;;;2.58;;
78169;SDS011;67412;49.892;14.490;2023-06-24T03:31:49;8.25;;;2.78;;
78169;SDS011;67412;49.892;14.490;2023-06-24T03:34:15;5.53;;;2.30;;
78169;SDS011;67412;49.892;14.490;2023-06-24T03:36:41;7.82;;;2.40;;
78169;SDS011;67412;49.892;14.490;2023-06-24T03:39:07;6.93;;;2.08;;
78169;SDS011;67412;49.892;14.490;2023-06-24T03:41:32;7.50;;;2.45;;
78169;SDS011;67412;49.892;14.490;2023-06-24T03:43:58;6.95;;;2.20;;
78169;SDS011;67412;49.892;14.490;2023-06-24T03:46:23;6.90;;;2.58;;
78169;SDS011;67412;49.892;14.490;2023-06-24T03:48:49;6.22;;;2.28;;
78169;SDS011;67412;49.892;14.490;2023-06-24T03:51:15;7.93;;;2.50;;
78169;SDS011;67412;49.892;14.490;2023-06-24T03:53:40;6.68;;;2.47;;
78169;SDS011;67412;49.892;14.490;2023-06-24T03:56:06;6.60;;;2.50;;
78169;SDS011;67412;49.892;14.490;2023-06-24T03:58:31;6.25;;;2.42;;
78169;SDS011;67412;49.892;14.490;2023-06-24T04:00:58;5.35;;;2.30;;
78169;SDS011;67412;49.892;14.490;2023-06-24T04:03:25;5.90;;;2.22;;
78169;SDS011;67412;49.892;14.490;2023-06-24T04:05:57;7.00;;;2.47;;
78169;SDS011;67412;49.892;14.490;2023-06-24T04:08:23;7.93;;;2.72;;
78169;SDS011;67412;49.892;14.490;2023-06-24T04:10:54;7.45;;;2.58;;
78169;SDS011;67412;49.892;14.490;2023-06-24T04:13:19;6.30;;;2.45;;
78169;SDS011;67412;49.892;14.490;2023-06-24T04:15:45;6.15;;;2.38;;
78169;SDS011;67412;49.892;14.490;2023-06-24T04:18:10;6.38;;;2.53;;
78169;SDS011;67412;49.892;14.490;2023-06-24T04:20:35;7.97;;;3.05;;
78169;SDS011;67412;49.892;14.490;2023-06-24T04:23:01;6.80;;;2.83;;
78169;SDS011;67412;49.892;14.490;2023-06-24T04:25:26;7.75;;;3.00;;
78169;SDS011;67412;49.892;14.490;2023-06-24T04:27:51;6.45;;;2.50;;
78169;SDS011;67412;49.892;14.490;2023-06-24T04:30:17;7.93;;;2.70;;
78169;SDS011;67412;49.892;14.490;2023-06-24T04:32:42;9.23;;;3.08;;
78169;SDS011;67412;49.892;14.490;2023-06-24T04:35:07;8.55;;;3.45;;
78169;SDS011;67412;49.892;14.490;2023-06-24T04:37:33;8.05;;;2.95;;
78169;SDS011;67412;49.892;14.490;2023-06-24T04:39:58;5.80;;;2.45;;
78169;SDS011;67412;49.892;14.490;2023-06-24T04:42:24;7.97;;;2.97;;
78169;SDS011;67412;49.892;14.490;2023-06-24T04:44:49;7.90;;;3.17;;
78169;SDS011;67412;49.892;14.490;2023-06-24T04:47:16;6.00;;;2.50;;
78169;SDS011;67412;49.892;14.490;2023-06-24T04:49:42;9.38;;;3.90;;
78169;SDS011;67412;49.892;14.490;2023-06-24T04:52:08;8.73;;;3.83;;
78169;SDS011;67412;49.892;14.490;2023-06-24T04:54:34;8.60;;;3.97;;
78169;SDS011;67412;49.892;14.490;2023-06-24T04:56:59;8.48;;;3.47;;
78169;SDS011;67412;49.892;14.490;2023-06-24T04:59:24;8.00;;;3.45;;
78169;SDS011;67412;49.892;14.490;2023-06-24T05:01:50;9.45;;;3.75;;
78169;SDS011;67412;49.892;14.490;2023-06-24T05:04:15;9.45;;;4.00;;
78169;SDS011;67412;49.892;14.490;2023-06-24T05:06:40;8.93;;;3.60;;
78169;SDS011;67412;49.892;14.490;2023-06-24T05:09:05;8.32;;;4.35;;
78169;SDS011;67412;49.892;14.490;2023-06-24T05:11:31;10.10;;;4.00;;
78169;SDS011;67412;49.892;14.490;2023-06-24T05:13:56;10.07;;;4.25;;
78169;SDS011;67412;49.892;14.490;2023-06-24T05:16:23;10.30;;;4.18;;
78169;SDS011;67412;49.892;14.490;2023-06-24T05:18:49;10.02;;;3.90;;
78169;SDS011;67412;49.892;14.490;2023-06-24T05:21:15;8.75;;;3.88;;
78169;SDS011;67412;49.892;14.490;2023-06-24T05:23:40;8.60;;;3.83;;
78169;SDS011;67412;49.892;14.490;2023-06-24T05:26:05;8.65;;;3.83;;
78169;SDS011;67412;49.892;14.490;2023-06-24T05:28:31;8.18;;;4.00;;
78169;SDS011;67412;49.892;14.490;2023-06-24T05:30:56;9.57;;;4.30;;
78169;SDS011;67412;49.892;14.490;2023-06-24T05:33:21;9.45;;;4.20;;
78169;SDS011;67412;49.892;14.490;2023-06-24T05:35:47;11.52;;;4.72;;
78169;SDS011;67412;49.892;14.490;2023-06-24T05:38:12;11.52;;;4.10;;
78169;SDS011;67412;49.892;14.490;2023-06-24T05:40:38;10.13;;;4.07;;
78169;SDS011;67412;49.892;14.490;2023-06-24T05:43:03;9.50;;;3.95;;
78169;SDS011;67412;49.892;14.490;2023-06-24T05:45:28;10.00;;;4.32;;
78169;SDS011;67412;49.892;14.490;2023-06-24T05:47:54;9.52;;;4.00;;
78169;SDS011;67412;49.892;14.490;2023-06-24T05:50:19;9.23;;;4.25;;
78169;SDS011;67412;49.892;14.490;2023-06-24T05:52:44;10.98;;;3.88;;
78169;SDS011;67412;49.892;14.490;2023-06-24T05:55:10;9.13;;;4.10;;
78169;SDS011;67412;49.892;14.490;2023-06-24T05:57:35;12.18;;;4.55;;
78169;SDS011;67412;49.892;14.490;2023-06-24T06:00:01;12.18;;;4.47;;
78169;SDS011;67412;49.892;14.490;2023-06-24T06:02:28;8.82;;;4.18;;
78169;SDS011;67412;49.892;14.490;2023-06-24T06:04:53;8.80;;;4.00;;
78169;SDS011;67412;49.892;14.490;2023-06-24T06:07:19;10.52;;;4.72;;
78169;SDS011;67412;49.892;14.490;2023-06-24T06:09:50;13.45;;;4.28;;
78169;SDS011;67412;49.892;14.490;2023-06-24T06:12:16;8.52;;;3.80;;
78169;SDS011;67412;49.892;14.490;2023-06-24T06:14:41;9.57;;;4.28;;
78169;SDS011;67412;49.892;14.490;2023-06-24T06:17:07;9.73;;;3.95;;
78169;SDS011;67412;49.892;14.490;2023-06-24T06:19:32;9.68;;;4.60;;
78169;SDS011;67412;49.892;14.490;2023-06-24T06:21:57;9.90;;;4.28;;
78169;SDS011;67412;49.892;14.490;2023-06-24T06:24:23;13.15;;;3.90;;
78169;SDS011;67412;49.892;14.490;2023-06-24T06:26:48;11.00;;;4.32;;
78169;SDS011;67412;49.892;14.490;2023-06-24T06:29:13;12.90;;;5.30;;
78169;SDS011;67412;49.892;14.490;2023-06-24T06:31:39;10.13;;;4.45;;
78169;SDS011;67412;49.892;14.490;2023-06-24T06:34:04;10.70;;;4.57;;
78169;SDS011;67412;49.892;14.490;2023-06-24T06:36:30;9.63;;;4.55;;
78169;SDS011;67412;49.892;14.490;2023-06-24T06:38:55;11.63;;;4.63;;
78169;SDS011;67412;49.892;14.490;2023-06-24T06:41:21;10.57;;;5.30;;
78169;SDS011;67412;49.892;14.490;2023-06-24T06:43:52;11.50;;;5.25;;
78169;SDS011;67412;49.892;14.490;2023-06-24T06:46:18;10.63;;;4.10;;
78169;SDS011;67412;49.892;14.490;2023-06-24T06:48:44;12.25;;;5.45;;
78169;SDS011;67412;49.892;14.490;2023-06-24T06:51:10;10.52;;;5.25;;
78169;SDS011;67412;49.892;14.490;2023-06-24T06:53:35;11.93;;;5.35;;
78169;SDS011;67412;49.892;14.490;2023-06-24T06:56:00;11.57;;;5.30;;
78169;SDS011;67412;49.892;14.490;2023-06-24T06:58:26;14.75;;;5.82;;
78169;SDS011;67412;49.892;14.490;2023-06-24T07:00:51;9.85;;;5.07;;
78169;SDS011;67412;49.892;14.490;2023-06-24T07:03:16;15.50;;;6.45;;
78169;SDS011;67412;49.892;14.490;2023-06-24T07:05:42;14.95;;;6.15;;
78169;SDS011;67412;49.892;14.490;2023-06-24T07:08:07;16.52;;;6.97;;
78169;SDS011;67412;49.892;14.490;2023-06-24T07:10:33;12.20;;;5.50;;
78169;SDS011;67412;49.892;14.490;2023-06-24T07:12:58;15.07;;;7.07;;
78169;SDS011;67412;49.892;14.490;2023-06-24T07:15:25;14.95;;;6.75;;
78169;SDS011;67412;49.892;14.490;2023-06-24T07:17:50;14.00;;;6.90;;
78169;SDS011;67412;49.892;14.490;2023-06-24T07:20:16;14.05;;;6.60;;
78169;SDS011;67412;49.892;14.490;2023-06-24T07:22:41;15.23;;;8.13;;
78169;SDS011;67412;49.892;14.490;2023-06-24T07:25:07;14.48;;;7.65;;
78169;SDS011;67412;49.892;14.490;2023-06-24T07:27:32;18.73;;;7.88;;
78169;SDS011;67412;49.892;14.490;2023-06-24T07:29:57;16.70;;;7.32;;
78169;SDS011;67412;49.892;14.490;2023-06-24T07:32:23;16.55;;;8.30;;
78169;SDS011;67412;49.892;14.490;2023-06-24T07:34:48;15.57;;;7.68;;
78169;SDS011;67412;49.892;14.490;2023-06-24T07:37:14;16.35;;;7.32;;
78169;SDS011;67412;49.892;14.490;2023-06-24T07:39:39;17.30;;;9.40;;
78169;SDS011;67412;49.892;14.490;2023-06-24T07:42:05;15.20;;;8.20;;
78169;SDS011;67412;49.892;14.490;2023-06-24T07:44:30;16.73;;;8.30;;
78169;SDS011;67412;49.892;14.490;2023-06-24T07:46:56;15.10;;;6.28;;
78169;SDS011;67412;49.892;14.490;2023-06-24T07:49:21;14.40;;;7.88;;
78169;SDS011;67412;49.892;14.490;2023-06-24T07:51:46;16.10;;;7.63;;
78169;SDS011;67412;49.892;14.490;2023-06-24T07:54:12;15.75;;;8.32;;
78169;SDS011;67412;49.892;14.490;2023-06-24T07:56:37;17.02;;;8.60;;
78169;SDS011;67412;49.892;14.490;2023-06-24T07:59:02;14.65;;;8.30;;
78169;SDS011;67412;49.892;14.490;2023-06-24T08:01:28;17.77;;;9.43;;
78169;SDS011;67412;49.892;14.490;2023-06-24T08:03:54;15.65;;;7.75;;
78169;SDS011;67412;49.892;14.490;2023-06-24T08:06:19;16.25;;;8.88;;
78169;SDS011;67412;49.892;14.490;2023-06-24T08:08:45;16.63;;;8.57;;
78169;SDS011;67412;49.892;14.490;2023-06-24T08:11:11;15.40;;;8.25;;
78169;SDS011;67412;49.892;14.490;2023-06-24T08:13:37;17.38;;;8.98;;
78169;SDS011;67412;49.892;14.490;2023-06-24T08:16:03;14.68;;;7.70;;
78169;SDS011;67412;49.892;14.490;2023-06-24T08:18:28;16.67;;;8.57;;
78169;SDS011;67412;49.892;14.490;2023-06-24T08:20:54;18.20;;;9.65;;
78169;SDS011;67412;49.892;14.490;2023-06-24T08:23:19;16.77;;;9.32;;
78169;SDS011;67412;49.892;14.490;2023-06-24T08:25:44;17.88;;;8.52;;
78169;SDS011;67412;49.892;14.490;2023-06-24T08:28:10;18.38;;;9.55;;
78169;SDS011;67412;49.892;14.490;2023-06-24T08:30:36;15.48;;;8.35;;
78169;SDS011;67412;49.892;14.490;2023-06-24T08:33:01;15.43;;;8.73;;
78169;SDS011;67412;49.892;14.490;2023-06-24T08:35:26;15.50;;;7.60;;
78169;SDS011;67412;49.892;14.490;2023-06-24T08:37:52;16.77;;;8.18;;
78169;SDS011;67412;49.892;14.490;2023-06-24T08:40:17;14.88;;;8.50;;
78169;SDS011;67412;49.892;14.490;2023-06-24T08:42:43;15.88;;;9.13;;
78169;SDS011;67412;49.892;14.490;2023-06-24T08:45:09;14.70;;;7.70;;
78169;SDS011;67412;49.892;14.490;2023-06-24T08:47:34;14.15;;;7.35;;
78169;SDS011;67412;49.892;14.490;2023-06-24T08:50:01;15.20;;;8.20;;
78169;SDS011;67412;49.892;14.490;2023-06-24T08:52:34;14.63;;;7.13;;
78169;SDS011;67412;49.892;14.490;2023-06-24T08:55:01;14.88;;;7.20;;
78169;SDS011;67412;49.892;14.490;2023-06-24T08:57:27;14.75;;;7.18;;
78169;SDS011;67412;49.892;14.490;2023-06-24T08:59:53;17.63;;;8.15;;
78169;SDS011;67412;49.892;14.490;2023-06-24T09:02:18;14.77;;;7.90;;
78169;SDS011;67412;49.892;14.490;2023-06-24T09:04:44;17.98;;;8.65;;
78169;SDS011;67412;49.892;14.490;2023-06-24T09:07:10;15.98;;;8.70;;
78169;SDS011;67412;49.892;14.490;2023-06-24T09:09:43;15.23;;;8.43;;
78169;SDS011;67412;49.892;14.490;2023-06-24T09:12:13;14.50;;;7.80;;
78169;SDS011;67412;49.892;14.490;2023-06-24T09:14:39;15.43;;;8.68;;
78169;SDS011;67412;49.892;14.490;2023-06-24T09:17:05;15.43;;;8.32;;
78169;SDS011;67412;49.892;14.490;2023-06-24T09:19:31;14.10;;;7.78;;
78169;SDS011;67412;49.892;14.490;2023-06-24T09:22:05;15.40;;;8.10;;
78169;SDS011;67412;49.892;14.490;2023-06-24T09:24:35;14.75;;;8.52;;
78169;SDS011;67412;49.892;14.490;2023-06-24T09:27:02;13.02;;;7.75;;
78169;SDS011;67412;49.892;14.490;2023-06-24T09:29:31;12.70;;;6.55;;
78169;SDS011;67412;49.892;14.490;2023-06-24T09:31:57;14.35;;;7.97;;
78169;SDS011;67412;49.892;14.490;2023-06-24T09:34:25;13.05;;;7.18;;
78169;SDS011;67412;49.892;14.490;2023-06-24T09:36:51;11.40;;;7.05;;
78169;SDS011;67412;49.892;14.490;2023-06-24T09:39:18;11.18;;;6.35;;
78169;SDS011;67412;49.892;14.490;2023-06-24T09:41:48;11.57;;;6.00;;
78169;SDS011;67412;49.892;14.490;2023-06-24T09:44:15;13.18;;;6.35;;
78169;SDS011;67412;49.892;14.490;2023-06-24T09:46:42;12.32;;;7.10;;
78169;SDS011;67412;49.892;14.490;2023-06-24T09:49:08;12.25;;;7.15;;
78169;SDS011;67412;49.892;14.490;2023-06-24T09:51:35;12.35;;;7.03;;
78169;SDS011;67412;49.892;14.490;2023-06-24T09:54:04;12.63;;;7.13;;
78169;SDS011;67412;49.892;14.490;2023-06-24T09:56:31;13.00;;;7.13;;
78169;SDS011;67412;49.892;14.490;2023-06-24T09:59:05;12.95;;;7.40;;
78169;SDS011;67412;49.892;14.490;2023-06-24T10:01:36;10.27;;;6.30;;
78169;SDS011;67412;49.892;14.490;2023-06-24T10:04:03;11.05;;;6.18;;
78169;SDS011;67412;49.892;14.490;2023-06-24T10:06:30;10.93;;;6.55;;
78169;SDS011;67412;49.892;14.490;2023-06-24T10:08:58;10.93;;;6.60;;
78169;SDS011;67412;49.892;14.490;2023-06-24T10:11:23;12.00;;;6.68;;
78169;SDS011;67412;49.892;14.490;2023-06-24T10:13:49;11.10;;;6.50;;
78169;SDS011;67412;49.892;14.490;2023-06-24T10:16:15;11.77;;;7.30;;
78169;SDS011;67412;49.892;14.490;2023-06-24T10:18:41;13.30;;;6.40;;
78169;SDS011;67412;49.892;14.490;2023-06-24T10:21:07;10.15;;;5.95;;
78169;SDS011;67412;49.892;14.490;2023-06-24T10:23:38;11.27;;;6.60;;
78169;SDS011;67412;49.892;14.490;2023-06-24T10:26:10;9.68;;;5.65;;
78169;SDS011;67412;49.892;14.490;2023-06-24T10:39:44;12.20;;;7.38;;
78169;SDS011;67412;49.892;14.490;2023-06-24T10:44:56;12.18;;;7.57;;
78169;SDS011;67412;49.892;14.490;2023-06-24T10:47:23;10.70;;;7.07;;
78169;SDS011;67412;49.892;14.490;2023-06-24T10:49:49;11.98;;;6.88;;
78169;SDS011;67412;49.892;14.490;2023-06-24T10:52:15;13.15;;;7.53;;
78169;SDS011;67412;49.892;14.490;2023-06-24T10:54:44;11.48;;;7.15;;
78169;SDS011;67412;49.892;14.490;2023-06-24T10:57:10;14.95;;;8.30;;
78169;SDS011;67412;49.892;14.490;2023-06-24T10:59:46;13.93;;;7.95;;
78169;SDS011;67412;49.892;14.490;2023-06-24T11:02:16;11.80;;;6.70;;
78169;SDS011;67412;49.892;14.490;2023-06-24T11:04:49;12.52;;;7.18;;
78169;SDS011;67412;49.892;14.490;2023-06-24T11:07:19;10.80;;;6.78;;
78169;SDS011;67412;49.892;14.490;2023-06-24T11:09:55;11.05;;;5.85;;
78169;SDS011;67412;49.892;14.490;2023-06-24T11:12:26;10.65;;;6.13;;
78169;SDS011;67412;49.892;14.490;2023-06-24T11:14:59;9.45;;;6.18;;
78169;SDS011;67412;49.892;14.490;2023-06-24T11:17:26;10.15;;;6.43;;
78169;SDS011;67412;49.892;14.490;2023-06-24T11:19:53;11.40;;;6.28;;
78169;SDS011;67412;49.892;14.490;2023-06-24T11:22:19;14.88;;;6.32;;
78169;SDS011;67412;49.892;14.490;2023-06-24T11:24:45;11.32;;;6.50;;
78169;SDS011;67412;49.892;14.490;2023-06-24T11:27:10;10.88;;;6.13;;
78169;SDS011;67412;49.892;14.490;2023-06-24T11:29:35;10.80;;;5.97;;
78169;SDS011;67412;49.892;14.490;2023-06-24T11:32:01;12.43;;;6.07;;
78169;SDS011;67412;49.892;14.490;2023-06-24T11:34:28;10.55;;;5.60;;
78169;SDS011;67412;49.892;14.490;2023-06-24T11:36:54;8.90;;;5.22;;
78169;SDS011;67412;49.892;14.490;2023-06-24T11:39:26;9.52;;;4.90;;
78169;SDS011;67412;49.892;14.490;2023-06-24T11:41:53;9.38;;;5.30;;
78169;SDS011;67412;49.892;14.490;2023-06-24T11:44:25;10.93;;;5.45;;
78169;SDS011;67412;49.892;14.490;2023-06-24T11:46:51;12.20;;;5.78;;
78169;SDS011;67412;49.892;14.490;2023-06-24T11:49:17;8.90;;;4.78;;
78169;SDS011;67412;49.892;14.490;2023-06-24T11:51:47;10.07;;;4.43;;
78169;SDS011;67412;49.892;14.490;2023-06-24T11:56:42;7.97;;;4.65;;
78169;SDS011;67412;49.892;14.490;2023-06-24T11:59:15;9.95;;;4.63;;
78169;SDS011;67412;49.892;14.490;2023-06-24T12:01:42;8.93;;;4.97;;
78169;SDS011;67412;49.892;14.490;2023-06-24T12:04:11;9.95;;;5.05;;
78169;SDS011;67412;49.892;14.490;2023-06-24T12:06:40;8.77;;;5.03;;
78169;SDS011;67412;49.892;14.490;2023-06-24T12:09:07;8.02;;;4.38;;
78169;SDS011;67412;49.892;14.490;2023-06-24T12:11:33;8.95;;;4.28;;
78169;SDS011;67412;49.892;14.490;2023-06-24T12:13:58;18.63;;;5.85;;
78169;SDS011;67412;49.892;14.490;2023-06-24T12:16:23;12.32;;;4.07;;
78169;SDS011;67412;49.892;14.490;2023-06-24T12:18:50;8.35;;;4.47;;
78169;SDS011;67412;49.892;14.490;2023-06-24T12:21:15;7.85;;;4.22;;
78169;SDS011;67412;49.892;14.490;2023-06-24T12:23:41;8.77;;;3.70;;
78169;SDS011;67412;49.892;14.490;2023-06-24T12:26:06;9.05;;;4.10;;
78169;SDS011;67412;49.892;14.490;2023-06-24T12:28:31;8.50;;;4.40;;
78169;SDS011;67412;49.892;14.490;2023-06-24T12:30:57;7.38;;;3.45;;
78169;SDS011;67412;49.892;14.490;2023-06-24T12:33:22;9.32;;;3.85;;
78169;SDS011;67412;49.892;14.490;2023-06-24T12:35:48;7.20;;;3.97;;
78169;SDS011;67412;49.892;14.490;2023-06-24T12:38:13;8.15;;;3.90;;
78169;SDS011;67412;49.892;14.490;2023-06-24T12:40:39;8.10;;;3.88;;
78169;SDS011;67412;49.892;14.490;2023-06-24T12:43:04;8.63;;;4.18;;
78169;SDS011;67412;49.892;14.490;2023-06-24T12:45:30;7.20;;;3.30;;
78169;SDS011;67412;49.892;14.490;2023-06-24T12:47:55;7.22;;;3.75;;
78169;SDS011;67412;49.892;14.490;2023-06-24T12:50:21;8.93;;;4.00;;
78169;SDS011;67412;49.892;14.490;2023-06-24T12:52:46;7.10;;;3.70;;
78169;SDS011;67412;49.892;14.490;2023-06-24T12:55:12;8.25;;;3.83;;
78169;SDS011;67412;49.892;14.490;2023-06-24T12:57:37;7.50;;;4.22;;
78169;SDS011;67412;49.892;14.490;2023-06-24T13:00:03;8.10;;;4.35;;
78169;SDS011;67412;49.892;14.490;2023-06-24T13:02:33;7.28;;;3.47;;
78169;SDS011;67412;49.892;14.490;2023-06-24T13:04:59;7.07;;;3.50;;
78169;SDS011;67412;49.892;14.490;2023-06-24T13:07:24;7.90;;;3.47;;
78169;SDS011;67412;49.892;14.490;2023-06-24T13:09:50;8.15;;;3.50;;
78169;SDS011;67412;49.892;14.490;2023-06-24T13:12:15;5.97;;;3.10;;
78169;SDS011;67412;49.892;14.490;2023-06-24T13:14:40;8.23;;;3.45;;
78169;SDS011;67412;49.892;14.490;2023-06-24T13:17:06;6.28;;;3.05;;
78169;SDS011;67412;49.892;14.490;2023-06-24T13:19:31;7.15;;;3.00;;
78169;SDS011;67412;49.892;14.490;2023-06-24T13:21:57;6.90;;;3.30;;
78169;SDS011;67412;49.892;14.490;2023-06-24T13:24:23;8.18;;;3.63;;
78169;SDS011;67412;49.892;14.490;2023-06-24T13:26:48;6.63;;;3.20;;
78169;SDS011;67412;49.892;14.490;2023-06-24T13:29:14;7.53;;;3.58;;
78169;SDS011;67412;49.892;14.490;2023-06-24T13:31:39;8.38;;;3.45;;
78169;SDS011;67412;49.892;14.490;2023-06-24T13:34:05;6.63;;;3.55;;
78169;SDS011;67412;49.892;14.490;2023-06-24T13:38:57;6.70;;;3.55;;
78169;SDS011;67412;49.892;14.490;2023-06-24T13:41:22;6.05;;;3.10;;
78169;SDS011;67412;49.892;14.490;2023-06-24T13:43:47;7.25;;;2.95;;
78169;SDS011;67412;49.892;14.490;2023-06-24T13:46:12;6.57;;;2.95;;
78169;SDS011;67412;49.892;14.490;2023-06-24T13:48:38;7.43;;;3.75;;
78169;SDS011;67412;49.892;14.490;2023-06-24T13:51:03;5.50;;;2.72;;
78169;SDS011;67412;49.892;14.490;2023-06-24T13:53:28;6.68;;;3.35;;
78169;SDS011;67412;49.892;14.490;2023-06-24T13:55:54;8.23;;;3.70;;
78169;SDS011;67412;49.892;14.490;2023-06-24T13:58:19;7.35;;;2.85;;
78169;SDS011;67412;49.892;14.490;2023-06-24T14:00:45;7.15;;;3.50;;
78169;SDS011;67412;49.892;14.490;2023-06-24T14:03:10;7.07;;;3.08;;
78169;SDS011;67412;49.892;14.490;2023-06-24T14:05:36;6.88;;;3.22;;
78169;SDS011;67412;49.892;14.490;2023-06-24T14:08:01;8.98;;;3.75;;
78169;SDS011;67412;49.892;14.490;2023-06-24T14:10:27;7.55;;;3.50;;
78169;SDS011;67412;49.892;14.490;2023-06-24T14:12:52;6.60;;;3.22;;
78169;SDS011;67412;49.892;14.490;2023-06-24T14:15:17;8.35;;;3.25;;
78169;SDS011;67412;49.892;14.490;2023-06-24T14:17:43;6.90;;;3.50;;
78169;SDS011;67412;49.892;14.490;2023-06-24T14:20:08;7.45;;;3.38;;
78169;SDS011;67412;49.892;14.490;2023-06-24T14:22:34;7.22;;;3.30;;
78169;SDS011;67412;49.892;14.490;2023-06-24T14:24:59;6.63;;;3.28;;
78169;SDS011;67412;49.892;14.490;2023-06-24T14:27:24;7.30;;;3.67;;
78169;SDS011;67412;49.892;14.490;2023-06-24T14:29:50;7.93;;;3.65;;
78169;SDS011;67412;49.892;14.490;2023-06-24T14:32:15;7.88;;;3.75;;
78169;SDS011;67412;49.892;14.490;2023-06-24T14:34:40;6.88;;;2.97;;
78169;SDS011;67412;49.892;14.490;2023-06-24T14:37:06;7.30;;;3.47;;
78169;SDS011;67412;49.892;14.490;2023-06-24T14:39:31;7.55;;;3.35;;
78169;SDS011;67412;49.892;14.490;2023-06-24T14:41:56;8.00;;;3.50;;
78169;SDS011;67412;49.892;14.490;2023-06-24T14:44:22;7.32;;;3.28;;
78169;SDS011;67412;49.892;14.490;2023-06-24T14:46:47;6.53;;;3.15;;
78169;SDS011;67412;49.892;14.490;2023-06-24T14:49:12;7.80;;;3.47;;
78169;SDS011;67412;49.892;14.490;2023-06-24T14:51:38;8.73;;;3.63;;
78169;SDS011;67412;49.892;14.490;2023-06-24T14:54:03;8.57;;;3.53;;
78169;SDS011;67412;49.892;14.490;2023-06-24T14:56:28;7.28;;;3.30;;
78169;SDS011;67412;49.892;14.490;2023-06-24T14:58:54;7.63;;;3.80;;
78169;SDS011;67412;49.892;14.490;2023-06-24T15:01:19;8.13;;;3.53;;